createdAt,value
2018-01-18T00:00:30.208Z,4.80
2018-01-18T00:03:02.109Z,4.80
2018-01-18T00:05:37.537Z,4.90
2018-01-18T00:11:00.485Z,5.00
2018-01-18T00:13:33.391Z,5.00
2018-01-18T00:16:16.248Z,5.10
2018-01-18T00:18:56.263Z,5.10
2018-01-18T00:21:30.991Z,5.20
2018-01-18T00:24:05.068Z,5.20
2018-01-18T00:26:42.400Z,5.20
2018-01-18T00:29:17.204Z,5.20
2018-01-18T00:31:55.761Z,5.10
2018-01-18T00:34:32.001Z,5.10
2018-01-18T00:37:07.380Z,5.10
2018-01-18T00:39:44.015Z,5.80
2018-01-18T00:42:18.319Z,5.00
2018-01-18T00:44:53.332Z,5.00
2018-01-18T00:47:26.490Z,5.00
2018-01-18T00:50:00.311Z,5.10
2018-01-18T00:52:37.457Z,5.00
2018-01-18T00:55:10.551Z,5.10
2018-01-18T00:57:46.331Z,5.00
2018-01-18T01:00:20.462Z,5.00
2018-01-18T01:02:56.596Z,5.10
2018-01-18T01:05:31.556Z,5.00
2018-01-18T01:08:05.931Z,5.10
2018-01-18T01:10:42.371Z,5.60
2018-01-18T01:13:13.946Z,5.10
2018-01-18T01:15:48.615Z,5.10
2018-01-18T01:18:20.583Z,5.10
2018-01-18T01:20:52.824Z,5.10
2018-01-18T01:23:25.770Z,5.10
2018-01-18T01:25:57.831Z,6.70
2018-01-18T01:28:30.497Z,5.10
2018-01-18T01:31:03.682Z,5.10
2018-01-18T01:33:37.663Z,3.80
2018-01-18T01:36:10.771Z,5.10
2018-01-18T01:38:43.393Z,5.00
2018-01-18T01:41:17.764Z,5.00
2018-01-18T01:43:48.860Z,4.90
2018-01-18T01:46:22.805Z,4.90
2018-01-18T01:48:55.086Z,6.30
2018-01-18T01:51:29.146Z,4.80
2018-01-18T01:54:02.969Z,4.80
2018-01-18T01:56:36.718Z,3.60
2018-01-18T01:59:10.716Z,3.80
2018-01-18T02:01:42.455Z,4.70
2018-01-18T02:04:17.768Z,4.70
2018-01-18T02:06:50.439Z,4.70
2018-01-18T02:09:23.184Z,4.70
2018-01-18T02:11:55.856Z,4.70
2018-01-18T02:14:29.005Z,4.70
2018-01-18T02:17:01.594Z,4.70
2018-01-18T02:19:34.381Z,4.70
2018-01-18T02:22:06.482Z,4.70
2018-01-18T02:24:39.305Z,4.70
2018-01-18T02:27:11.657Z,4.70
2018-01-18T02:29:46.945Z,4.70
2018-01-18T02:32:19.972Z,4.70
2018-01-18T02:34:54.457Z,4.70
2018-01-18T02:37:29.581Z,4.90
2018-01-18T02:40:03.564Z,4.80
2018-01-18T02:42:36.071Z,4.90
2018-01-18T02:45:10.398Z,4.90
2018-01-18T02:47:44.466Z,4.90
2018-01-18T02:50:17.308Z,4.90
2018-01-18T02:52:51.741Z,4.80
2018-01-18T02:55:26.371Z,4.80
2018-01-18T02:57:58.757Z,4.80
2018-01-18T03:00:31.857Z,4.80
2018-01-18T03:03:07.992Z,4.80
2018-01-18T03:05:42.608Z,4.70
2018-01-18T03:08:18.041Z,4.70
2018-01-18T03:10:50.402Z,4.70
2018-01-18T03:13:24.504Z,4.70
2018-01-18T03:15:58.158Z,4.70
2018-01-18T03:18:30.762Z,4.70
2018-01-18T03:21:07.350Z,4.70
2018-01-18T03:23:40.983Z,4.70
2018-01-18T03:26:15.625Z,4.80
2018-01-18T03:28:47.585Z,4.70
2018-01-18T03:31:19.163Z,4.80
2018-01-18T03:33:51.859Z,4.80
2018-01-18T03:36:26.344Z,4.90
2018-01-18T03:39:01.998Z,4.90
2018-01-18T03:41:33.867Z,4.80
2018-01-18T03:44:07.811Z,4.80
2018-01-18T03:46:43.668Z,4.80
2018-01-18T03:49:15.339Z,4.80
2018-01-18T03:51:48.407Z,4.80
2018-01-18T03:54:21.836Z,4.80
2018-01-18T03:56:55.424Z,4.80
2018-01-18T03:59:27.754Z,4.80
2018-01-18T04:02:00.119Z,4.70
2018-01-18T04:04:34.023Z,4.50
2018-01-18T04:07:07.455Z,4.50
2018-01-18T04:09:41.043Z,4.50
2018-01-18T04:12:15.011Z,4.40
2018-01-18T04:14:50.423Z,4.40
2018-01-18T04:20:03.032Z,4.40
2018-01-18T04:22:37.024Z,4.30
2018-01-18T04:25:11.185Z,4.20
2018-01-18T04:27:43.221Z,4.20
2018-01-18T04:30:17.029Z,4.20
2018-01-18T04:32:51.778Z,4.20
2018-01-18T04:35:26.763Z,4.20
2018-01-18T04:38:00.824Z,4.10
2018-01-18T04:40:37.211Z,4.20
2018-01-18T04:43:09.055Z,4.10
2018-01-18T04:45:42.967Z,4.10
2018-01-18T04:48:15.941Z,4.10
2018-01-18T04:50:47.163Z,4.20
2018-01-18T04:53:19.438Z,4.30
2018-01-18T04:55:52.547Z,4.40
2018-01-18T04:58:25.602Z,4.30
2018-01-18T05:01:01.697Z,4.30
2018-01-18T05:03:34.754Z,4.30
2018-01-18T05:06:07.625Z,4.30
2018-01-18T05:08:41.075Z,4.30
2018-01-18T05:11:14.911Z,4.30
2018-01-18T05:13:49.384Z,4.30
2018-01-18T05:16:26.500Z,4.30
2018-01-18T05:18:59.306Z,4.30
2018-01-18T05:21:32.603Z,4.30
2018-01-18T05:24:05.656Z,4.30
2018-01-18T05:26:43.079Z,4.30
2018-01-18T05:29:18.068Z,4.30
2018-01-18T05:31:51.619Z,4.30
2018-01-18T05:34:26.506Z,4.30
2018-01-18T05:36:59.528Z,4.30
2018-01-18T05:40:03.567Z,4.30
2018-01-18T05:42:36.477Z,4.40
2018-01-18T05:45:10.060Z,4.40
2018-01-18T05:47:43.439Z,4.40
2018-01-18T05:50:15.505Z,4.60
2018-01-18T05:52:48.535Z,4.70
2018-01-18T05:55:20.835Z,4.70
2018-01-18T05:57:54.797Z,4.80
2018-01-18T06:00:30.094Z,4.80
2018-01-18T06:03:04.489Z,5.00
2018-01-18T06:05:38.634Z,5.00
2018-01-18T06:08:15.219Z,5.10
2018-01-18T06:10:49.720Z,5.00
2018-01-18T06:13:23.287Z,5.10
2018-01-18T06:15:55.941Z,5.20
2018-01-18T06:18:31.503Z,5.20
2018-01-18T06:21:15.164Z,5.20
2018-01-18T06:23:49.081Z,5.20
2018-01-18T06:26:21.343Z,5.20
2018-01-18T06:28:55.142Z,5.30
2018-01-18T06:34:13.007Z,5.40
2018-01-18T06:36:44.818Z,5.40
2018-01-18T06:39:44.825Z,5.40
2018-01-18T06:43:02.392Z,5.50
2018-01-18T06:46:00.503Z,5.70
2018-01-18T06:48:46.578Z,5.90
2018-01-18T06:51:19.369Z,5.80
2018-01-18T06:53:51.416Z,5.80
2018-01-18T06:56:24.945Z,5.90
2018-01-18T06:58:56.509Z,5.90
2018-01-18T07:01:30.243Z,5.90
2018-01-18T07:04:04.179Z,5.90
2018-01-18T07:06:37.068Z,6.00
2018-01-18T07:09:13.155Z,6.10
2018-01-18T07:11:45.174Z,6.00
2018-01-18T07:14:17.541Z,6.10
2018-01-18T07:16:49.771Z,6.20
2018-01-18T07:19:24.332Z,6.20
2018-01-18T07:22:00.178Z,6.30
2018-01-18T07:24:36.091Z,6.30
2018-01-18T07:27:09.592Z,6.30
2018-01-18T07:29:43.909Z,6.40
2018-01-18T07:32:16.285Z,6.50
2018-01-18T07:34:47.946Z,6.50
2018-01-18T07:37:20.402Z,6.50
2018-01-18T07:39:52.734Z,6.60
2018-01-18T07:42:27.187Z,6.60
2018-01-18T07:45:03.479Z,6.60
2018-01-18T07:47:36.344Z,6.60
2018-01-18T07:50:10.514Z,6.70
2018-01-18T07:52:43.682Z,6.70
2018-01-18T07:55:17.299Z,6.70
2018-01-18T07:57:51.267Z,6.80
2018-01-18T08:00:24.048Z,6.90
2018-01-18T08:03:02.423Z,6.90
2018-01-18T08:05:34.649Z,6.90
2018-01-18T08:08:15.792Z,7.00
2018-01-18T08:10:50.536Z,7.20
2018-01-18T08:13:24.631Z,7.20
2018-01-18T08:15:59.789Z,7.30
2018-01-18T08:18:37.022Z,7.30
2018-01-18T08:21:11.008Z,7.30
2018-01-18T08:23:46.708Z,7.40
2018-01-18T08:26:25.770Z,7.40
2018-01-18T08:29:00.897Z,7.50
2018-01-18T08:31:34.399Z,7.50
2018-01-18T08:34:12.941Z,7.60
2018-01-18T08:36:45.861Z,7.60
2018-01-18T08:39:24.152Z,7.60
2018-01-18T08:41:59.977Z,7.70
2018-01-18T08:44:34.446Z,7.80
2018-01-18T08:47:09.658Z,7.80
2018-01-18T08:49:43.448Z,8.00
2018-01-18T08:52:22.626Z,8.10
2018-01-18T08:54:55.662Z,8.00
2018-01-18T08:57:30.505Z,8.10
2018-01-18T09:00:07.872Z,8.10
2018-01-18T09:02:43.364Z,8.20
2018-01-18T09:05:18.097Z,8.20
2018-01-18T09:07:53.701Z,8.30
2018-01-18T09:10:30.529Z,8.30
2018-01-18T09:13:05.199Z,8.40
2018-01-18T09:15:41.882Z,8.40
2018-01-18T09:18:17.092Z,8.30
2018-01-18T09:20:50.210Z,8.40
2018-01-18T09:23:25.212Z,8.40
2018-01-18T09:26:01.805Z,8.30
2018-01-18T09:28:34.678Z,8.40
2018-01-18T09:31:09.529Z,8.50
2018-01-18T09:33:46.568Z,8.00
2018-01-18T09:36:23.468Z,8.90
2018-01-18T09:38:58.776Z,8.90
2018-01-18T09:41:34.937Z,9.10
2018-01-18T09:44:10.172Z,9.10
2018-01-18T09:46:48.842Z,9.20
2018-01-18T09:49:24.531Z,9.20
2018-01-18T09:52:00.036Z,9.20
2018-01-18T09:54:33.061Z,9.20
2018-01-18T09:57:06.727Z,9.20
2018-01-18T09:59:41.443Z,9.20
2018-01-18T10:02:21.978Z,9.10
2018-01-18T10:04:59.649Z,9.10
2018-01-18T10:07:36.513Z,9.10
2018-01-18T10:10:09.914Z,9.10
2018-01-18T10:12:42.961Z,9.10
2018-01-18T10:15:19.046Z,9.20
2018-01-18T10:18:00.337Z,9.20
2018-01-18T10:20:35.296Z,9.20
2018-01-18T10:23:10.270Z,9.30
2018-01-18T10:25:43.900Z,9.40
2018-01-18T10:28:17.395Z,9.30
2018-01-18T10:30:49.218Z,9.40
2018-01-18T10:33:23.759Z,9.50
2018-01-18T10:36:02.432Z,9.50
2018-01-18T10:38:35.493Z,9.50
2018-01-18T10:41:12.090Z,9.50
2018-01-18T10:43:47.228Z,9.60
2018-01-18T10:46:23.349Z,9.50
2018-01-18T10:49:01.147Z,9.50
2018-01-18T10:51:37.651Z,9.50
2018-01-18T10:54:16.665Z,9.40
2018-01-18T10:56:57.168Z,9.40
2018-01-18T10:59:41.810Z,9.40
2018-01-18T11:02:21.992Z,9.30
2018-01-18T11:04:58.573Z,9.30
2018-01-18T11:07:36.208Z,9.40
2018-01-18T11:10:10.792Z,9.40
2018-01-18T11:12:47.318Z,9.40
2018-01-18T11:15:22.726Z,9.50
2018-01-18T11:17:59.569Z,9.50
2018-01-18T11:23:19.917Z,8.80
2018-01-18T11:25:53.397Z,9.10
2018-01-18T11:28:31.329Z,8.70
2018-01-18T11:31:08.017Z,8.70
2018-01-18T11:33:42.410Z,8.40
2018-01-18T11:36:15.857Z,8.00
2018-01-18T11:38:50.095Z,8.00
2018-01-18T11:41:23.075Z,7.90
2018-01-18T11:43:55.030Z,7.80
2018-01-18T11:46:31.360Z,7.70
2018-01-18T11:49:06.100Z,7.60
2018-01-18T11:51:43.102Z,7.60
2018-01-18T11:54:20.852Z,7.60
2018-01-18T11:56:57.378Z,7.60
2018-01-18T11:59:40.197Z,7.80
2018-01-18T12:02:13.347Z,7.70
2018-01-18T12:04:48.846Z,7.80
2018-01-18T12:07:23.192Z,8.00
2018-01-18T12:10:00.168Z,8.10
2018-01-18T12:12:34.772Z,8.30
2018-01-18T12:15:10.321Z,8.40
2018-01-18T12:17:44.585Z,8.50
2018-01-18T12:20:19.740Z,8.70
2018-01-18T12:22:53.518Z,8.70
2018-01-18T12:25:30.861Z,8.80
2018-01-18T12:28:05.147Z,8.80
2018-01-18T12:30:38.045Z,8.80
2018-01-18T12:33:10.877Z,8.80
2018-01-18T12:35:53.305Z,8.70
2018-01-18T12:38:30.313Z,8.50
2018-01-18T12:41:08.213Z,8.30
2018-01-18T12:43:44.096Z,8.30
2018-01-18T12:46:16.915Z,8.20
2018-01-18T12:48:55.269Z,8.20
2018-01-18T12:51:31.007Z,8.10
2018-01-18T12:54:04.574Z,8.10
2018-01-18T12:56:37.197Z,8.10
2018-01-18T12:59:09.858Z,8.10
2018-01-18T13:01:41.762Z,8.10
2018-01-18T13:04:13.647Z,8.10
2018-01-18T13:06:49.997Z,8.10
2018-01-18T13:09:24.465Z,8.10
2018-01-18T13:12:03.945Z,8.10
2018-01-18T13:14:36.835Z,7.90
2018-01-18T13:17:12.673Z,7.90
2018-01-18T13:19:45.581Z,7.90
2018-01-18T13:22:20.601Z,8.00
2018-01-18T13:25:12.212Z,8.00
2018-01-18T13:27:46.452Z,8.10
2018-01-18T13:30:23.286Z,8.10
2018-01-18T13:32:57.283Z,8.10
2018-01-18T13:35:32.876Z,8.10
2018-01-18T13:38:09.787Z,8.10
2018-01-18T13:40:45.010Z,8.10
2018-01-18T13:43:20.137Z,8.10
2018-01-18T13:45:55.784Z,8.10
2018-01-18T13:48:32.887Z,8.10
2018-01-18T13:51:09.278Z,8.00
2018-01-18T13:53:49.569Z,8.00
2018-01-18T13:56:25.148Z,7.90
2018-01-18T13:58:57.798Z,7.80
2018-01-18T14:01:33.119Z,7.80
2018-01-18T14:04:07.782Z,7.90
2018-01-18T14:06:42.341Z,7.80
2018-01-18T14:09:18.960Z,7.80
2018-01-18T14:11:59.487Z,7.80
2018-01-18T14:14:39.208Z,6.50
2018-01-18T14:17:12.192Z,7.70
2018-01-18T14:19:47.491Z,7.70
2018-01-18T14:22:21.076Z,7.70
2018-01-18T14:24:56.506Z,7.60
2018-01-18T14:27:33.625Z,7.90
2018-01-18T14:30:07.874Z,7.60
2018-01-18T14:32:45.191Z,7.60
2018-01-18T14:35:19.080Z,7.50
2018-01-18T14:37:55.314Z,7.40
2018-01-18T14:40:31.887Z,7.40
2018-01-18T14:43:09.144Z,7.40
2018-01-18T14:45:44.840Z,7.30
2018-01-18T14:48:18.557Z,7.30
2018-01-18T14:51:02.108Z,7.30
2018-01-18T14:53:35.714Z,7.30
2018-01-18T14:56:18.233Z,7.30
2018-01-18T14:58:52.865Z,7.30
2018-01-18T15:01:28.489Z,8.30
2018-01-18T15:04:03.180Z,7.30
2018-01-18T15:06:43.943Z,7.30
2018-01-18T15:09:20.084Z,7.30
2018-01-18T15:11:56.729Z,7.30
2018-01-18T15:14:28.671Z,7.30
2018-01-18T15:17:00.459Z,7.20
2018-01-18T15:19:34.606Z,7.10
2018-01-18T15:22:08.854Z,7.10
2018-01-18T15:24:42.498Z,7.10
2018-01-18T15:27:16.626Z,7.20
2018-01-18T15:29:52.525Z,7.20
2018-01-18T15:32:26.372Z,7.30
2018-01-18T15:34:59.751Z,9.00
2018-01-18T15:37:33.110Z,7.60
2018-01-18T15:40:13.727Z,7.70
2018-01-18T15:42:48.127Z,7.70
2018-01-18T15:45:23.402Z,7.60
2018-01-18T15:47:55.032Z,7.50
2018-01-18T15:50:30.082Z,7.70
2018-01-18T15:53:04.320Z,6.90
2018-01-18T15:55:36.825Z,6.90
2018-01-18T15:58:09.870Z,6.90
2018-01-18T16:00:43.422Z,6.80
2018-01-18T16:03:17.395Z,6.80
2018-01-18T16:05:51.416Z,6.70
2018-01-18T16:08:28.468Z,6.70
2018-01-18T16:11:03.581Z,6.60
2018-01-18T16:13:36.298Z,6.60
2018-01-18T16:16:09.091Z,6.60
2018-01-18T16:18:44.267Z,6.50
2018-01-18T16:21:19.585Z,6.50
2018-01-18T16:23:55.245Z,6.30
2018-01-18T16:26:27.929Z,6.30
2018-01-18T16:29:03.162Z,6.40
2018-01-18T16:31:36.510Z,6.30
2018-01-18T16:34:12.039Z,6.40
2018-01-18T16:36:44.328Z,6.40
2018-01-18T16:39:19.447Z,6.30
2018-01-18T16:41:53.398Z,6.40
2018-01-18T16:44:26.347Z,6.30
2018-01-18T16:47:00.619Z,6.40
2018-01-18T16:49:33.838Z,6.30
2018-01-18T16:52:08.053Z,6.30
2018-01-18T16:55:43.567Z,6.40
2018-01-18T16:58:38.094Z,6.40
2018-01-18T17:01:16.612Z,6.40
2018-01-18T17:03:51.753Z,8.00
2018-01-18T17:06:24.099Z,6.50
2018-01-18T17:08:58.950Z,6.40
2018-01-18T17:11:32.740Z,6.40
2018-01-18T17:14:05.553Z,6.30
2018-01-18T17:16:37.244Z,6.30
2018-01-18T17:19:10.876Z,6.30
2018-01-18T17:21:44.737Z,6.30
2018-01-18T17:24:22.105Z,6.30
2018-01-18T17:26:58.795Z,6.30
2018-01-18T17:29:31.757Z,6.20
2018-01-18T17:32:05.397Z,6.20
2018-01-18T17:34:37.726Z,6.20
2018-01-18T17:37:11.430Z,6.10
2018-01-18T17:39:54.636Z,6.10
2018-01-18T17:42:32.401Z,6.10
2018-01-18T17:45:05.023Z,6.10
2018-01-18T17:47:39.902Z,6.00
2018-01-18T17:50:11.503Z,5.90
2018-01-18T17:52:43.847Z,5.90
2018-01-18T17:55:16.499Z,5.80
2018-01-18T17:57:56.323Z,5.40
2018-01-18T18:00:30.962Z,5.80
2018-01-18T18:03:03.789Z,5.80
2018-01-18T18:05:39.806Z,5.70
2018-01-18T18:08:14.176Z,5.70
2018-01-18T18:10:47.422Z,5.60
2018-01-18T18:13:30.836Z,5.60
2018-01-18T18:16:05.322Z,5.60
2018-01-18T18:18:49.223Z,5.40
2018-01-18T18:21:27.113Z,5.30
2018-01-18T18:24:01.688Z,5.30
2018-01-18T18:26:37.276Z,5.30
2018-01-18T18:29:11.714Z,5.30
2018-01-18T18:31:44.854Z,5.40
2018-01-18T18:34:20.634Z,5.50
2018-01-18T18:36:54.119Z,5.50
2018-01-18T18:39:25.500Z,5.60
2018-01-18T18:41:58.472Z,5.70
2018-01-18T18:44:32.196Z,5.70
2018-01-18T18:47:04.154Z,5.60
2018-01-18T18:49:36.320Z,5.70
2018-01-18T18:52:08.814Z,5.90
2018-01-18T18:54:43.856Z,6.80
2018-01-18T18:57:16.052Z,5.90
2018-01-18T18:59:50.125Z,5.80
2018-01-18T19:02:24.180Z,5.80
2018-01-18T19:05:02.756Z,5.90
2018-01-18T19:07:36.900Z,5.80
2018-01-18T19:10:09.646Z,5.90
2018-01-18T19:12:44.181Z,5.90
2018-01-18T19:15:17.581Z,6.80
2018-01-18T19:17:49.380Z,5.80
2018-01-18T19:20:20.680Z,5.80
2018-01-18T19:22:52.602Z,5.90
2018-01-18T19:25:26.992Z,5.90
2018-01-18T19:28:00.853Z,5.90
2018-01-18T19:30:32.451Z,5.90
2018-01-18T19:33:07.912Z,5.80
2018-01-18T19:35:41.759Z,5.80
2018-01-18T19:38:14.262Z,5.80
2018-01-18T19:40:46.641Z,5.80
2018-01-18T19:43:18.707Z,5.90
2018-01-18T19:45:51.161Z,5.90
2018-01-18T19:48:25.527Z,5.80
2018-01-18T19:51:00.222Z,5.80
2018-01-18T19:53:33.758Z,5.80
2018-01-18T19:56:09.161Z,5.80
2018-01-18T19:58:41.919Z,5.80
2018-01-18T20:01:17.290Z,5.70
2018-01-18T20:03:50.252Z,5.70
2018-01-18T20:06:22.650Z,5.80
2018-01-18T20:08:54.610Z,5.80
2018-01-18T20:11:28.210Z,5.80
2018-01-18T20:14:00.256Z,5.80
2018-01-18T20:16:34.580Z,5.80
2018-01-18T20:19:09.964Z,5.80
2018-01-18T20:21:44.518Z,5.90
2018-01-18T20:24:16.832Z,5.90
2018-01-18T20:26:49.233Z,5.90
2018-01-18T20:29:21.985Z,6.00
2018-01-18T20:31:54.588Z,5.90
2018-01-18T20:34:27.565Z,6.00
2018-01-18T20:37:01.160Z,6.00
2018-01-18T20:39:33.668Z,6.00
2018-01-18T20:42:05.609Z,6.00
2018-01-18T20:44:39.729Z,6.10
2018-01-18T20:47:13.120Z,6.10
2018-01-18T20:49:46.225Z,6.10
2018-01-18T20:52:19.341Z,6.10
2018-01-18T20:54:50.601Z,6.20
2018-01-18T20:57:22.104Z,6.20
2018-01-18T20:59:55.477Z,6.30
2018-01-18T21:02:28.841Z,6.20
2018-01-18T21:05:01.994Z,6.20
2018-01-18T21:07:33.149Z,6.30
2018-01-18T21:10:04.862Z,6.20
2018-01-18T21:12:39.883Z,6.20
2018-01-18T21:15:14.468Z,6.30
2018-01-18T21:17:46.099Z,6.20
2018-01-18T21:20:20.329Z,6.30
2018-01-18T21:22:52.018Z,6.30
2018-01-18T21:25:24.077Z,6.40
2018-01-18T21:27:56.893Z,6.30
2018-01-18T21:30:29.328Z,6.30
2018-01-18T21:33:02.557Z,6.30
2018-01-18T21:35:34.391Z,6.30
2018-01-18T21:38:08.873Z,6.30
2018-01-18T21:40:42.629Z,6.30
2018-01-18T21:43:14.293Z,6.30
2018-01-18T21:45:46.045Z,6.30
2018-01-18T21:48:18.700Z,6.30
2018-01-18T21:50:50.745Z,6.30
2018-01-18T21:53:22.682Z,6.40
2018-01-18T21:55:56.806Z,6.40
2018-01-18T21:58:29.501Z,6.40
2018-01-18T22:01:01.732Z,6.40
2018-01-18T22:03:32.976Z,6.40
2018-01-18T22:06:04.849Z,6.40
2018-01-18T22:08:37.618Z,6.50
2018-01-18T22:11:09.507Z,6.40
2018-01-18T22:13:45.216Z,6.40
2018-01-18T22:16:17.517Z,6.30
2018-01-18T22:18:50.335Z,6.40
2018-01-18T22:21:22.392Z,6.40
2018-01-18T22:23:55.074Z,6.40
2018-01-18T22:26:26.844Z,6.50
2018-01-18T22:28:58.567Z,6.50
2018-01-18T22:31:31.964Z,6.50
2018-01-18T22:34:04.434Z,6.40
2018-01-18T22:36:37.237Z,6.40
2018-01-18T22:39:08.582Z,6.30
2018-01-18T22:41:42.332Z,6.40
2018-01-18T22:44:15.658Z,6.30
2018-01-18T22:46:49.664Z,6.00
2018-01-18T22:49:22.329Z,6.00
2018-01-18T22:51:55.539Z,5.30
2018-01-18T22:54:26.649Z,4.90
2018-01-18T22:56:58.911Z,4.90
2018-01-18T22:59:31.773Z,4.50
2018-01-18T23:02:03.698Z,4.50
2018-01-18T23:04:35.636Z,4.70
2018-01-18T23:07:09.502Z,4.70
2018-01-18T23:09:42.679Z,5.00
2018-01-18T23:12:15.153Z,5.10
2018-01-18T23:14:56.307Z,5.10
2018-01-18T23:17:30.684Z,5.10
2018-01-18T23:20:02.107Z,5.20
2018-01-18T23:22:34.309Z,5.30
2018-01-18T23:25:07.108Z,5.30
2018-01-18T23:27:39.039Z,5.40
2018-01-18T23:30:11.640Z,5.40
2018-01-18T23:32:43.463Z,5.40
2018-01-18T23:35:14.594Z,5.40
2018-01-18T23:37:47.384Z,5.30
2018-01-18T23:40:19.063Z,5.30
2018-01-18T23:42:50.372Z,5.30
2018-01-18T23:45:23.067Z,5.30
2018-01-18T23:47:54.600Z,4.40
2018-01-18T23:50:29.496Z,5.10
2018-01-18T23:53:01.406Z,5.10
2018-01-18T23:55:33.365Z,5.10
2018-01-18T23:58:07.297Z,5.10
